createdAt,value
2018-08-04T00:02:19.934Z,100462.23
2018-08-04T00:04:50.240Z,100465.98
2018-08-04T00:07:20.125Z,100457.77
2018-08-04T00:09:49.946Z,100463.39
2018-08-04T00:12:20.562Z,100461.45
2018-08-04T00:14:51.345Z,100467.91
2018-08-04T00:17:22.753Z,100464.02
2018-08-04T00:19:53.416Z,100456.66
2018-08-04T00:22:24.413Z,100457.14
2018-08-04T00:24:56.178Z,100454.91
2018-08-04T00:27:26.746Z,100459.16
2018-08-04T00:29:57.363Z,100458.55
2018-08-04T00:32:28.433Z,100457.95
2018-08-04T00:35:06.949Z,100457.59
2018-08-04T00:37:37.071Z,100456.72
2018-08-04T00:40:08.550Z,100457.48
2018-08-04T00:42:38.573Z,100451.73
2018-08-04T00:45:09.257Z,100455.98
2018-08-04T00:47:39.183Z,100459.98
2018-08-04T00:50:10.497Z,100456.93
2018-08-04T00:52:40.437Z,100458.22
2018-08-04T00:55:10.364Z,100449.42
2018-08-04T00:57:40.363Z,100452.61
2018-08-04T01:00:10.335Z,100458.21
2018-08-04T01:02:40.333Z,100455.16
2018-08-04T01:05:11.345Z,100458.34
2018-08-04T01:07:42.639Z,100453.91
2018-08-04T01:10:13.354Z,100456.80
2018-08-04T01:12:44.320Z,100449.14
2018-08-04T01:15:15.677Z,100455.03
2018-08-04T01:17:46.300Z,100450.37
2018-08-04T01:20:17.637Z,100455.16
2018-08-04T01:22:48.313Z,100450.19
2018-08-04T01:25:19.247Z,100456.59
2018-08-04T01:27:50.682Z,100452.99
2018-08-04T01:30:22.207Z,100446.98
2018-08-04T01:32:52.765Z,100452.06
2018-08-04T01:35:23.320Z,100442.16
2018-08-04T01:37:55.023Z,100443.14
2018-08-04T01:40:25.611Z,100437.37
2018-08-04T01:42:56.438Z,100440.02
2018-08-04T01:45:27.290Z,100438.83
2018-08-04T01:47:58.273Z,100436.29
2018-08-04T01:50:29.272Z,100437.05
2018-08-04T01:53:00.989Z,100436.45
2018-08-04T01:55:31.879Z,100436.41
2018-08-04T01:58:02.483Z,100432.56
2018-08-04T02:00:33.321Z,100436.03
2018-08-04T02:03:04.321Z,100432.22
2018-08-04T02:05:35.629Z,100429.73
2018-08-04T02:08:06.430Z,100428.84
2018-08-04T02:10:37.309Z,100428.55
2018-08-04T02:13:08.996Z,100425.24
2018-08-04T02:15:40.645Z,100393.78
2018-08-04T02:18:10.558Z,100424.06
2018-08-04T02:20:41.218Z,100418.05
2018-08-04T02:23:12.654Z,100406.92
2018-08-04T02:25:43.267Z,100415.18
2018-08-04T02:28:14.596Z,100421.41
2018-08-04T02:30:45.723Z,100418.34
2018-08-04T02:33:16.352Z,100417.21
2018-08-04T02:35:47.621Z,100414.75
2018-08-04T02:38:23.600Z,100416.56
2018-08-04T02:40:53.595Z,100411.62
2018-08-04T02:43:24.082Z,100408.83
2018-08-04T02:45:54.431Z,100392.87
2018-08-04T02:48:24.334Z,100411.64
2018-08-04T02:50:54.193Z,100415.41
2018-08-04T02:53:24.753Z,100413.45
2018-08-04T02:55:55.303Z,100407.83
2018-08-04T02:58:26.319Z,100412.45
2018-08-04T03:00:57.309Z,100410.72
2018-08-04T03:03:28.646Z,100408.85
2018-08-04T03:05:59.205Z,100404.55
2018-08-04T03:08:30.621Z,100411.86
2018-08-04T03:11:01.795Z,100409.61
2018-08-04T03:13:32.376Z,100411.26
2018-08-04T03:16:03.307Z,100408.02
2018-08-04T03:18:34.299Z,100407.95
2018-08-04T03:21:05.697Z,100407.06
2018-08-04T03:23:36.273Z,100405.63
2018-08-04T03:26:07.288Z,100408.57
2018-08-04T03:28:38.721Z,100420.95
2018-08-04T03:31:09.345Z,100422.25
2018-08-04T03:33:40.695Z,100422.47
2018-08-04T03:36:11.441Z,100426.98
2018-08-04T03:38:43.299Z,100423.91
2018-08-04T03:41:13.286Z,100417.55
2018-08-04T03:43:44.598Z,100425.66
2018-08-04T03:46:15.691Z,100424.55
2018-08-04T03:48:46.337Z,100426.35
2018-08-04T03:51:17.645Z,100421.39
2018-08-04T03:53:48.357Z,100429.42
2018-08-04T03:56:19.256Z,100432.37
2018-08-04T03:58:50.644Z,100431.38
2018-08-04T04:01:21.333Z,100436.18
2018-08-04T04:03:52.288Z,100435.88
2018-08-04T04:06:23.617Z,100434.77
2018-08-04T04:08:54.373Z,100435.28
2018-08-04T04:11:25.522Z,100437.69
2018-08-04T04:13:56.369Z,100437.98
2018-08-04T04:16:27.259Z,100436.63
2018-08-04T04:18:58.598Z,100432.88
2018-08-04T04:21:29.347Z,100436.63
2018-08-04T04:24:00.358Z,100436.42
2018-08-04T04:26:31.526Z,100435.58
2018-08-04T04:29:02.372Z,100437.53
2018-08-04T04:31:32.981Z,100441.38
2018-08-04T04:34:03.524Z,100443.03
2018-08-04T04:36:34.348Z,100441.73
2018-08-04T04:39:07.855Z,100440.98
2018-08-04T04:41:38.376Z,100434.31
2018-08-04T04:44:08.663Z,100439.78
2018-08-04T04:46:41.220Z,100429.87
2018-08-04T04:49:12.617Z,100434.02
2018-08-04T04:51:43.830Z,100431.06
2018-08-04T04:54:14.260Z,100433.68
2018-08-04T04:56:44.146Z,100431.78
2018-08-04T04:59:14.129Z,100431.88
2018-08-04T05:01:44.690Z,100432.98
2018-08-04T05:04:15.382Z,100432.53
2018-08-04T05:06:46.354Z,100436.67
2018-08-04T05:09:17.268Z,100437.57
2018-08-04T05:11:48.679Z,100438.92
2018-08-04T05:14:19.275Z,100441.98
2018-08-04T05:16:50.613Z,100441.31
2018-08-04T05:19:21.416Z,100445.52
2018-08-04T05:21:52.301Z,100439.64
2018-08-04T05:24:23.697Z,100443.70
2018-08-04T05:26:54.327Z,100437.30
2018-08-04T05:29:25.645Z,100433.83
2018-08-04T05:31:57.189Z,100436.23
2018-08-04T05:34:27.784Z,100431.88
2018-08-04T05:36:58.330Z,100436.97
2018-08-04T05:39:29.412Z,100437.48
2018-08-04T05:42:00.369Z,100438.69
2018-08-04T05:44:31.496Z,100439.88
2018-08-04T05:47:02.301Z,100438.70
2018-08-04T05:49:33.621Z,100435.81
2018-08-04T05:52:04.307Z,100435.10
2018-08-04T05:54:35.716Z,100427.95
2018-08-04T05:57:06.378Z,100428.55
2018-08-04T05:59:37.471Z,100426.94
2018-08-04T06:02:08.379Z,100422.33
2018-08-04T06:04:39.377Z,100425.62
2018-08-04T06:07:10.277Z,100426.34
2018-08-04T06:09:41.585Z,100430.53
2018-08-04T06:12:12.237Z,100433.48
2018-08-04T06:14:43.760Z,100427.72
2018-08-04T06:17:14.321Z,100424.07
2018-08-04T06:19:45.282Z,100426.30
2018-08-04T06:22:16.553Z,100426.28
2018-08-04T06:24:47.325Z,100418.97
2018-08-04T06:27:18.712Z,100422.27
2018-08-04T06:29:49.407Z,100424.39
2018-08-04T06:32:20.254Z,100428.20
2018-08-04T06:34:51.678Z,100426.19
2018-08-04T06:37:22.425Z,100422.81
2018-08-04T06:39:53.425Z,100428.11
2018-08-04T06:42:24.291Z,100423.70
2018-08-04T06:44:55.665Z,100425.00
2018-08-04T06:47:26.777Z,100418.80
2018-08-04T06:49:57.429Z,100419.84
2018-08-04T06:52:28.696Z,100420.83
2018-08-04T06:54:59.364Z,100424.25
2018-08-04T06:57:30.648Z,100427.26
2018-08-04T07:00:01.819Z,100431.16
2018-08-04T07:02:32.369Z,100425.62
2018-08-04T07:05:03.343Z,100425.73
2018-08-04T07:07:34.701Z,100425.30
2018-08-04T07:10:05.558Z,100420.73
2018-08-04T07:12:36.338Z,100425.97
2018-08-04T07:15:07.802Z,100424.34
2018-08-04T07:17:38.413Z,100429.09
2018-08-04T07:20:09.561Z,100423.81
2018-08-04T07:22:40.422Z,100424.55
2018-08-04T07:25:11.410Z,100420.08
2018-08-04T07:27:41.353Z,100415.01
2018-08-04T07:30:14.385Z,100414.84
2018-08-04T07:32:45.466Z,100423.08
2018-08-04T07:35:15.449Z,100416.41
2018-08-04T07:37:45.374Z,100428.95
2018-08-04T07:40:16.549Z,100417.27
2018-08-04T07:42:47.339Z,100425.73
2018-08-04T07:45:18.702Z,100417.84
2018-08-04T07:47:49.327Z,100421.98
2018-08-04T07:50:20.705Z,100423.41
2018-08-04T07:52:51.279Z,100419.97
2018-08-04T07:55:22.324Z,100418.55
2018-08-04T07:57:53.677Z,100415.73
2018-08-04T08:00:24.367Z,100404.90
2018-08-04T08:02:55.384Z,100412.50
2018-08-04T08:05:26.395Z,100421.76
2018-08-04T08:07:57.372Z,100419.23
2018-08-04T08:10:28.364Z,100419.08
2018-08-04T08:12:59.384Z,100416.16
2018-08-04T08:15:30.699Z,100414.14
2018-08-04T08:18:06.544Z,100420.75
2018-08-04T08:20:36.525Z,100416.20
2018-08-04T08:23:07.457Z,100408.12
2018-08-04T08:25:37.245Z,100418.91
2018-08-04T08:28:07.369Z,100413.77
2018-08-04T08:30:37.334Z,100410.48
2018-08-04T08:33:07.244Z,100410.86
2018-08-04T08:35:39.173Z,100405.45
2018-08-04T08:38:09.705Z,100413.75
2018-08-04T08:40:40.367Z,100405.86
2018-08-04T08:43:11.180Z,100405.67
2018-08-04T08:45:43.572Z,100400.22
2018-08-04T08:48:13.359Z,100408.13
2018-08-04T08:50:44.392Z,100401.31
2018-08-04T08:53:15.447Z,100406.75
2018-08-04T08:55:46.355Z,100399.92
2018-08-04T08:58:17.736Z,100406.22
2018-08-04T09:00:48.460Z,100405.11
2018-08-04T09:03:19.344Z,100404.86
2018-08-04T09:05:50.674Z,100405.39
2018-08-04T09:08:21.326Z,100405.39
2018-08-04T09:10:52.336Z,100398.30
2018-08-04T09:13:23.254Z,100404.30
2018-08-04T09:15:54.625Z,100402.40
2018-08-04T09:18:25.205Z,100398.21
2018-08-04T09:20:56.793Z,100406.66
2018-08-04T09:23:27.375Z,100403.08
2018-08-04T09:25:58.309Z,100395.81
2018-08-04T09:28:30.019Z,100395.02
2018-08-04T09:31:00.705Z,100389.71
2018-08-04T09:33:31.340Z,100388.43
2018-08-04T09:36:02.272Z,100383.96
2018-08-04T09:38:33.269Z,100385.06
2018-08-04T09:41:04.700Z,100380.38
2018-08-04T09:43:35.452Z,100379.70
2018-08-04T09:46:06.836Z,100389.94
2018-08-04T09:48:37.364Z,100387.13
2018-08-04T09:51:08.354Z,100388.16
2018-08-04T09:53:39.262Z,100377.16
2018-08-04T09:56:10.572Z,100365.86
2018-08-04T09:58:41.367Z,100364.83
2018-08-04T10:01:17.113Z,100369.88
2018-08-04T10:03:47.001Z,100368.69
2018-08-04T10:06:17.438Z,100364.87
2018-08-04T10:08:47.232Z,100367.44
2018-08-04T10:11:17.561Z,100362.86
2018-08-04T10:13:47.670Z,100368.03
2018-08-04T10:16:18.767Z,100360.89
2018-08-04T10:18:49.837Z,100360.83
2018-08-04T10:21:24.242Z,100355.97
2018-08-04T10:23:54.999Z,100353.88
2018-08-04T10:26:25.377Z,100341.54
2018-08-04T10:28:55.237Z,100352.07
2018-08-04T10:31:25.116Z,100351.42
2018-08-04T10:33:55.693Z,100348.28
2018-08-04T10:36:26.368Z,100345.71
2018-08-04T10:38:57.349Z,100348.45
2018-08-04T10:41:28.256Z,100349.85
2018-08-04T10:43:59.656Z,100349.67
2018-08-04T10:46:30.331Z,100348.39
2018-08-04T10:49:01.334Z,100352.78
2018-08-04T10:51:32.288Z,100347.86
2018-08-04T10:54:03.345Z,100354.45
2018-08-04T10:56:34.392Z,100349.58
2018-08-04T10:59:05.393Z,100336.38
2018-08-04T11:01:36.387Z,100338.25
2018-08-04T11:04:08.217Z,100337.52
2018-08-04T11:06:38.674Z,100336.62
2018-08-04T11:09:11.775Z,100308.66
2018-08-04T11:11:42.177Z,100324.49
2018-08-04T11:14:12.141Z,100327.12
2018-08-04T11:16:42.711Z,100324.55
2018-08-04T11:19:13.329Z,100331.91
2018-08-04T11:21:44.357Z,100330.73
2018-08-04T11:24:15.444Z,100333.48
2018-08-04T11:26:46.293Z,100331.05
2018-08-04T11:29:17.391Z,100335.67
2018-08-04T11:31:49.278Z,100341.69
2018-08-04T11:34:19.354Z,100345.56
2018-08-04T11:36:51.321Z,100344.30
2018-08-04T11:39:21.316Z,100347.00
2018-08-04T11:41:52.292Z,100352.63
2018-08-04T11:44:23.290Z,100351.14
2018-08-04T11:46:54.264Z,100349.16
2018-08-04T11:49:25.228Z,100347.68
2018-08-04T11:51:56.556Z,100329.97
2018-08-04T11:54:27.238Z,100331.11
2018-08-04T11:56:58.616Z,100335.20
2018-08-04T11:59:29.342Z,100330.77
2018-08-04T12:02:00.290Z,100325.50
2018-08-04T12:04:31.399Z,100322.79
2018-08-04T12:07:02.285Z,100323.02
2018-08-04T12:09:33.747Z,100320.35
2018-08-04T12:12:04.327Z,100323.50
2018-08-04T12:14:35.319Z,100325.87
2018-08-04T12:17:06.386Z,100331.10
2018-08-04T12:19:37.333Z,100328.36
2018-08-04T12:22:08.621Z,100325.84
2018-08-04T12:24:39.329Z,100322.48
2018-08-04T12:27:10.318Z,100321.95
2018-08-04T12:29:40.202Z,100325.27
2018-08-04T12:32:11.748Z,100320.32
2018-08-04T12:34:42.306Z,100320.02
2018-08-04T12:37:13.299Z,100319.67
2018-08-04T12:39:44.341Z,100315.09
2018-08-04T12:42:15.578Z,100307.40
2018-08-04T12:44:46.229Z,100298.56
2018-08-04T12:47:17.646Z,100297.08
2018-08-04T12:49:48.338Z,100296.42
2018-08-04T12:52:19.533Z,100298.50
2018-08-04T12:54:50.324Z,100291.66
2018-08-04T12:57:21.660Z,100288.75
2018-08-04T12:59:53.292Z,100296.30
2018-08-04T13:02:23.333Z,100294.33
2018-08-04T13:04:54.306Z,100292.42
2018-08-04T13:07:25.337Z,100288.81
2018-08-04T13:09:56.850Z,100288.13
2018-08-04T13:12:27.501Z,100280.15
2018-08-04T13:14:57.336Z,100282.96
2018-08-04T13:17:28.407Z,100274.18
2018-08-04T13:19:59.275Z,100278.25
2018-08-04T13:22:30.745Z,100277.03
2018-08-04T13:25:01.370Z,100270.41
2018-08-04T13:27:34.548Z,100272.48
2018-08-04T13:30:05.110Z,100265.36
2018-08-04T13:32:34.959Z,100264.46
2018-08-04T13:35:05.475Z,100259.03
2018-08-04T13:37:35.438Z,100257.75
2018-08-04T13:40:06.601Z,100253.95
2018-08-04T13:42:37.339Z,100248.42
2018-08-04T13:45:08.759Z,100246.89
2018-08-04T13:47:39.367Z,100239.51
2018-08-04T13:50:10.362Z,100231.95
2018-08-04T13:52:41.271Z,100234.05
2018-08-04T13:55:12.277Z,100231.89
2018-08-04T13:57:43.548Z,100236.38
2018-08-04T14:00:14.290Z,100229.12
2018-08-04T14:02:45.312Z,100225.44
2018-08-04T14:05:16.365Z,100223.44
2018-08-04T14:07:47.325Z,100219.22
2018-08-04T14:10:18.405Z,100216.67
2018-08-04T14:12:49.245Z,100218.19
2018-08-04T14:15:20.552Z,100211.66
2018-08-04T14:17:51.253Z,100211.49
2018-08-04T14:20:22.596Z,100205.54
2018-08-04T14:22:53.319Z,100205.64
2018-08-04T14:25:24.252Z,100206.80
2018-08-04T14:27:55.589Z,100202.87
2018-08-04T14:30:26.266Z,100205.31
2018-08-04T14:32:57.629Z,100201.02
2018-08-04T14:35:28.921Z,100197.47
2018-08-04T14:37:59.410Z,100193.60
2018-08-04T14:40:30.277Z,100183.53
2018-08-04T14:43:01.337Z,100190.35
2018-08-04T14:45:32.288Z,100179.56
2018-08-04T14:48:03.271Z,100175.65
2018-08-04T14:50:34.616Z,100174.09
2018-08-04T14:53:05.260Z,100164.61
2018-08-04T14:55:36.547Z,100162.89
2018-08-04T14:58:07.397Z,100157.52
2018-08-04T15:00:45.054Z,100155.78
2018-08-04T15:03:15.014Z,100154.73
2018-08-04T15:05:44.921Z,100163.00
2018-08-04T15:08:14.892Z,100158.98
2018-08-04T15:10:44.927Z,100147.95
2018-08-04T15:13:15.471Z,100150.47
2018-08-04T15:15:45.410Z,100147.72
2018-08-04T15:18:15.537Z,100144.44
2018-08-04T15:20:46.245Z,100152.84
2018-08-04T15:23:17.304Z,100154.91
2018-08-04T15:25:47.247Z,100152.08
2018-08-04T15:28:18.218Z,100145.82
2018-08-04T15:30:49.555Z,100147.62
2018-08-04T15:33:20.732Z,100148.39
2018-08-04T15:35:51.388Z,100145.44
2018-08-04T15:38:22.381Z,100147.27
2018-08-04T15:40:53.668Z,100153.53
2018-08-04T15:43:24.352Z,100147.15
2018-08-04T15:45:54.295Z,100151.53
2018-08-04T15:48:26.640Z,100105.06
2018-08-04T15:50:56.480Z,100158.29
2018-08-04T15:53:27.286Z,100158.09
2018-08-04T15:55:58.273Z,100155.05
2018-08-04T15:58:29.291Z,100153.61
2018-08-04T16:01:00.316Z,100159.87
2018-08-04T16:03:39.160Z,100167.98
2018-08-04T16:06:09.229Z,100167.77
2018-08-04T16:08:39.083Z,100167.62
2018-08-04T16:11:09.029Z,100174.09
2018-08-04T16:13:38.974Z,100173.94
2018-08-04T16:16:09.375Z,100177.70
2018-08-04T16:18:39.257Z,100182.15
2018-08-04T16:21:09.222Z,100173.77
2018-08-04T16:23:39.424Z,100171.98
2018-08-04T16:26:10.318Z,100169.99
2018-08-04T16:28:41.250Z,100168.71
2018-08-04T16:31:12.822Z,100169.63
2018-08-04T16:33:43.365Z,100163.39
2018-08-04T16:36:14.307Z,100178.08
2018-08-04T16:38:45.619Z,100177.08
2018-08-04T16:41:16.329Z,100172.00
2018-08-04T16:43:47.292Z,100163.84
2018-08-04T16:46:24.938Z,100168.83
2018-08-04T16:48:55.943Z,100164.19
2018-08-04T16:51:25.880Z,100162.12
2018-08-04T16:53:56.229Z,100165.77
2018-08-04T16:56:26.045Z,100164.47
2018-08-04T16:58:56.433Z,100155.80
2018-08-04T17:01:26.621Z,100148.23
2018-08-04T17:03:57.194Z,100159.88
2018-08-04T17:06:27.081Z,100150.73
2018-08-04T17:08:57.089Z,100137.88
2018-08-04T17:11:27.652Z,100136.88
2018-08-04T17:13:59.188Z,100132.90
2018-08-04T17:16:29.217Z,100130.03
2018-08-04T17:19:00.314Z,100132.59
2018-08-04T17:21:31.282Z,100137.41
2018-08-04T17:24:02.603Z,100130.31
2018-08-04T17:26:33.259Z,100126.06
2018-08-04T17:29:04.625Z,100117.91
2018-08-04T17:31:35.163Z,100121.01
2018-08-04T17:34:05.721Z,100127.09
2018-08-04T17:36:36.367Z,100121.41
2018-08-04T17:39:09.777Z,100114.08
2018-08-04T17:41:40.477Z,100115.47
2018-08-04T17:44:10.334Z,100103.55
2018-08-04T17:46:40.182Z,100095.13
2018-08-04T17:49:11.845Z,100095.97
2018-08-04T17:51:42.384Z,100103.92
2018-08-04T17:54:13.347Z,100104.76
2018-08-04T17:56:44.253Z,100114.92
2018-08-04T17:59:15.758Z,100123.18
2018-08-04T18:01:46.909Z,100124.67
2018-08-04T18:04:17.434Z,100130.15
2018-08-04T18:06:48.309Z,100138.11
2018-08-04T18:09:19.360Z,100141.72
2018-08-04T18:11:50.393Z,100142.05
2018-08-04T18:14:21.334Z,100139.92
2018-08-04T18:16:52.405Z,100147.92
2018-08-04T18:19:23.313Z,100152.44
2018-08-04T18:21:54.304Z,100156.48
2018-08-04T18:24:25.732Z,100157.69
2018-08-04T18:26:56.394Z,100160.73
2018-08-04T18:29:27.352Z,100163.20
2018-08-04T18:31:58.287Z,100162.13
2018-08-04T18:34:28.225Z,100166.49
2018-08-04T18:36:59.743Z,100165.68
2018-08-04T18:39:30.527Z,100165.97
2018-08-04T18:42:01.337Z,100169.81
2018-08-04T18:44:32.837Z,100169.00
2018-08-04T18:47:03.628Z,100175.56
2018-08-04T18:49:34.351Z,100168.99
2018-08-04T18:52:06.364Z,100173.08
2018-08-04T18:54:36.352Z,100167.07
2018-08-04T18:57:07.639Z,100162.98
2018-08-04T18:59:38.461Z,100159.98
2018-08-04T19:02:09.373Z,100161.35
2018-08-04T19:04:40.252Z,100165.44
2018-08-04T19:07:11.614Z,100165.44
2018-08-04T19:09:42.337Z,100158.61
2018-08-04T19:12:13.282Z,100160.80
2018-08-04T19:14:44.689Z,100155.33
2018-08-04T19:17:15.843Z,100157.52
2018-08-04T19:19:46.405Z,100157.50
2018-08-04T19:22:17.352Z,100166.52
2018-08-04T19:24:48.287Z,100157.77
2018-08-04T19:27:19.642Z,100153.94
2018-08-04T19:29:50.353Z,100162.39
2018-08-04T19:32:21.351Z,100162.67
2018-08-04T19:34:52.429Z,100164.25
2018-08-04T19:37:23.333Z,100159.88
2018-08-04T19:39:54.427Z,100154.14
2018-08-04T19:42:26.249Z,100151.93
2018-08-04T19:44:56.241Z,100149.47
2018-08-04T19:47:27.709Z,100155.18
2018-08-04T19:49:58.359Z,100156.81
2018-08-04T19:52:29.394Z,100151.90
2018-08-04T19:55:00.378Z,100163.33
2018-08-04T19:57:31.397Z,100098.80
2018-08-04T20:00:02.323Z,100163.05
2018-08-04T20:02:33.646Z,100162.47
2018-08-04T20:05:04.257Z,100158.33
2018-08-04T20:07:36.404Z,100159.94
2018-08-04T20:10:06.475Z,100162.64
2018-08-04T20:12:37.264Z,100161.26
2018-08-04T20:15:08.846Z,100157.70
2018-08-04T20:17:39.631Z,100153.59
2018-08-04T20:20:10.512Z,100146.48
2018-08-04T20:22:41.374Z,100144.00
2018-08-04T20:25:12.623Z,100139.09
2018-08-04T20:27:43.357Z,100136.58
2018-08-04T20:30:14.394Z,100134.67
2018-08-04T20:32:46.540Z,100130.55
2018-08-04T20:35:16.623Z,100121.21
2018-08-04T20:37:47.390Z,100118.45
2018-08-04T20:40:18.439Z,100121.16
2018-08-04T20:42:49.359Z,100127.67
2018-08-04T20:45:20.629Z,100128.73
2018-08-04T20:47:51.348Z,100131.94
2018-08-04T20:50:22.863Z,100132.19
2018-08-04T20:52:53.781Z,100128.63
2018-08-04T20:55:24.535Z,100130.75
2018-08-04T20:57:55.929Z,100124.19
2018-08-04T21:00:26.584Z,100124.14
2018-08-04T21:02:57.517Z,100125.47
2018-08-04T21:05:28.526Z,100122.98
2018-08-04T21:07:59.661Z,100122.08
2018-08-04T21:10:30.397Z,100124.14
2018-08-04T21:13:02.619Z,100127.05
2018-08-04T21:15:33.614Z,100127.84
2018-08-04T21:18:03.736Z,100129.72
2018-08-04T21:20:34.634Z,100129.67
2018-08-04T21:23:05.265Z,100122.03
2018-08-04T21:25:37.095Z,100123.95
2018-08-04T21:28:07.677Z,100131.27
2018-08-04T21:30:38.650Z,100120.48
2018-08-04T21:33:09.307Z,100130.28
2018-08-04T21:35:41.472Z,100126.42
2018-08-04T21:38:11.523Z,100123.14
2018-08-04T21:40:42.745Z,100123.91
2018-08-04T21:43:13.437Z,100128.78
2018-08-04T21:45:44.706Z,100126.95
2018-08-04T21:48:15.469Z,100124.16
2018-08-04T21:50:46.360Z,100126.37
2018-08-04T21:53:18.379Z,100127.54
2018-08-04T21:55:48.784Z,100128.11
2018-08-04T21:58:19.454Z,100133.83
2018-08-04T22:00:56.352Z,100109.11
2018-08-04T22:03:26.723Z,100135.41
2018-08-04T22:05:56.816Z,100133.99
2018-08-04T22:08:37.366Z,100140.23
2018-08-04T22:11:07.887Z,100133.42
2018-08-04T22:13:37.894Z,100135.80
2018-08-04T22:16:09.913Z,100130.02
2018-08-04T22:18:40.207Z,100131.09
2018-08-04T22:21:10.026Z,100134.59
2018-08-04T22:23:39.996Z,100132.37
2018-08-04T22:26:10.402Z,100124.73
2018-08-04T22:28:40.535Z,100128.80
2018-08-04T22:31:11.287Z,100133.89
2018-08-04T22:33:41.302Z,100139.53
2018-08-04T22:36:11.169Z,100139.45
2018-08-04T22:38:41.374Z,100135.08
2018-08-04T22:41:11.830Z,100134.51
2018-08-04T22:43:41.892Z,100128.51
2018-08-04T22:46:17.259Z,100133.36
2018-08-04T22:48:49.189Z,100132.21
2018-08-04T22:51:24.266Z,100132.70
2018-08-04T22:53:54.109Z,100133.20
2018-08-04T22:56:24.109Z,100135.86
2018-08-04T22:58:53.977Z,100129.34
2018-08-04T23:01:23.954Z,100130.93
2018-08-04T23:03:53.954Z,100133.62
2018-08-04T23:06:23.917Z,100135.16
2018-08-04T23:08:53.889Z,100136.45
2018-08-04T23:11:23.822Z,100124.34
2018-08-04T23:13:53.829Z,100139.34
2018-08-04T23:16:23.756Z,100149.91
2018-08-04T23:18:53.646Z,100159.88
2018-08-04T23:21:23.648Z,100160.09
2018-08-04T23:23:54.140Z,100161.67
2018-08-04T23:26:23.981Z,100166.78
2018-08-04T23:28:54.580Z,100163.20
2018-08-04T23:31:26.059Z,100160.98
2018-08-04T23:33:56.616Z,100148.14
2018-08-04T23:36:27.443Z,100147.02
2018-08-04T23:38:58.428Z,100155.63
2018-08-04T23:41:29.373Z,100162.32
2018-08-04T23:44:00.387Z,100150.31
2018-08-04T23:46:31.309Z,100149.73
2018-08-04T23:49:02.666Z,100151.88
2018-08-04T23:51:33.356Z,100146.94
2018-08-04T23:54:04.364Z,100151.78
2018-08-04T23:56:35.320Z,100144.42
2018-08-04T23:59:06.413Z,100149.03
